sensor_id;sensor_type;location;lat;lon;timestamp;P1;durP1;ratioP1;P2;durP2;ratioP2
34924;SDS011;21130;51.728;8.748;2024-01-07T00:00:23;25.65;;;18.63;;
34924;SDS011;21130;51.728;8.748;2024-01-07T00:02:51;28.15;;;19.90;;
34924;SDS011;21130;51.728;8.748;2024-01-07T00:05:18;26.67;;;19.40;;
34924;SDS011;21130;51.728;8.748;2024-01-07T00:07:44;28.80;;;20.10;;
34924;SDS011;21130;51.728;8.748;2024-01-07T00:10:12;26.77;;;19.35;;
34924;SDS011;21130;51.728;8.748;2024-01-07T00:12:38;27.58;;;19.27;;
34924;SDS011;21130;51.728;8.748;2024-01-07T00:15:05;26.95;;;19.15;;
34924;SDS011;21130;51.728;8.748;2024-01-07T00:17:32;29.60;;;20.17;;
34924;SDS011;21130;51.728;8.748;2024-01-07T00:19:59;26.85;;;19.60;;
34924;SDS011;21130;51.728;8.748;2024-01-07T00:22:25;29.88;;;19.95;;
34924;SDS011;21130;51.728;8.748;2024-01-07T00:24:52;29.55;;;21.35;;
34924;SDS011;21130;51.728;8.748;2024-01-07T00:27:19;31.50;;;21.70;;
34924;SDS011;21130;51.728;8.748;2024-01-07T00:29:46;38.28;;;24.52;;
34924;SDS011;21130;51.728;8.748;2024-01-07T00:32:12;34.13;;;23.42;;
34924;SDS011;21130;51.728;8.748;2024-01-07T00:34:39;40.42;;;25.42;;
34924;SDS011;21130;51.728;8.748;2024-01-07T00:37:06;39.13;;;25.50;;
34924;SDS011;21130;51.728;8.748;2024-01-07T00:39:32;38.00;;;25.55;;
34924;SDS011;21130;51.728;8.748;2024-01-07T00:41:59;40.60;;;25.95;;
34924;SDS011;21130;51.728;8.748;2024-01-07T00:44:26;42.25;;;27.58;;
34924;SDS011;21130;51.728;8.748;2024-01-07T00:46:53;38.72;;;25.13;;
34924;SDS011;21130;51.728;8.748;2024-01-07T00:49:19;39.58;;;25.75;;
34924;SDS011;21130;51.728;8.748;2024-01-07T00:51:46;41.15;;;26.05;;
34924;SDS011;21130;51.728;8.748;2024-01-07T00:54:12;39.55;;;26.35;;
34924;SDS011;21130;51.728;8.748;2024-01-07T00:56:39;38.75;;;25.73;;
34924;SDS011;21130;51.728;8.748;2024-01-07T00:59:06;34.20;;;25.13;;
34924;SDS011;21130;51.728;8.748;2024-01-07T01:01:34;41.30;;;26.63;;
34924;SDS011;21130;51.728;8.748;2024-01-07T01:04:00;36.50;;;24.85;;
34924;SDS011;21130;51.728;8.748;2024-01-07T01:06:26;37.67;;;24.33;;
34924;SDS011;21130;51.728;8.748;2024-01-07T01:08:53;37.22;;;24.98;;
34924;SDS011;21130;51.728;8.748;2024-01-07T01:11:19;40.00;;;25.48;;
34924;SDS011;21130;51.728;8.748;2024-01-07T01:13:46;36.92;;;25.63;;
34924;SDS011;21130;51.728;8.748;2024-01-07T01:16:12;38.53;;;26.27;;
34924;SDS011;21130;51.728;8.748;2024-01-07T01:18:46;38.25;;;25.55;;
34924;SDS011;21130;51.728;8.748;2024-01-07T01:21:13;34.10;;;25.90;;
34924;SDS011;21130;51.728;8.748;2024-01-07T01:23:39;34.80;;;25.65;;
34924;SDS011;21130;51.728;8.748;2024-01-07T01:26:06;36.28;;;24.83;;
34924;SDS011;21130;51.728;8.748;2024-01-07T01:28:32;34.78;;;25.83;;
34924;SDS011;21130;51.728;8.748;2024-01-07T01:30:59;37.63;;;25.85;;
34924;SDS011;21130;51.728;8.748;2024-01-07T01:33:25;34.70;;;25.02;;
34924;SDS011;21130;51.728;8.748;2024-01-07T01:35:53;36.22;;;25.35;;
34924;SDS011;21130;51.728;8.748;2024-01-07T01:38:20;35.17;;;24.45;;
34924;SDS011;21130;51.728;8.748;2024-01-07T01:40:50;33.05;;;24.73;;
34924;SDS011;21130;51.728;8.748;2024-01-07T01:43:22;34.47;;;25.45;;
34924;SDS011;21130;51.728;8.748;2024-01-07T01:45:48;33.78;;;25.02;;
34924;SDS011;21130;51.728;8.748;2024-01-07T01:48:15;32.63;;;24.23;;
34924;SDS011;21130;51.728;8.748;2024-01-07T01:50:42;32.22;;;24.55;;
34924;SDS011;21130;51.728;8.748;2024-01-07T01:53:10;31.75;;;23.73;;
34924;SDS011;21130;51.728;8.748;2024-01-07T01:55:39;31.27;;;23.50;;
34924;SDS011;21130;51.728;8.748;2024-01-07T01:58:05;29.48;;;22.17;;
34924;SDS011;21130;51.728;8.748;2024-01-07T02:00:34;28.50;;;21.63;;
34924;SDS011;21130;51.728;8.748;2024-01-07T02:03:04;28.27;;;21.23;;
34924;SDS011;21130;51.728;8.748;2024-01-07T02:05:31;24.30;;;19.60;;
34924;SDS011;21130;51.728;8.748;2024-01-07T02:07:57;25.30;;;20.77;;
34924;SDS011;21130;51.728;8.748;2024-01-07T02:10:26;24.63;;;19.08;;
34924;SDS011;21130;51.728;8.748;2024-01-07T02:12:54;24.58;;;19.52;;
34924;SDS011;21130;51.728;8.748;2024-01-07T02:15:20;24.17;;;19.73;;
34924;SDS011;21130;51.728;8.748;2024-01-07T02:17:47;24.58;;;19.15;;
34924;SDS011;21130;51.728;8.748;2024-01-07T02:20:13;23.75;;;19.38;;
34924;SDS011;21130;51.728;8.748;2024-01-07T02:22:40;24.80;;;19.25;;
34924;SDS011;21130;51.728;8.748;2024-01-07T02:25:10;24.20;;;19.08;;
34924;SDS011;21130;51.728;8.748;2024-01-07T02:27:36;23.58;;;18.85;;
34924;SDS011;21130;51.728;8.748;2024-01-07T02:30:03;24.55;;;18.88;;
34924;SDS011;21130;51.728;8.748;2024-01-07T02:32:30;23.38;;;19.70;;
34924;SDS011;21130;51.728;8.748;2024-01-07T02:34:59;24.73;;;20.00;;
34924;SDS011;21130;51.728;8.748;2024-01-07T02:37:25;23.13;;;19.05;;
34924;SDS011;21130;51.728;8.748;2024-01-07T02:39:52;26.48;;;19.85;;
34924;SDS011;21130;51.728;8.748;2024-01-07T02:42:20;26.63;;;20.08;;
34924;SDS011;21130;51.728;8.748;2024-01-07T02:44:46;23.73;;;18.98;;
34924;SDS011;21130;51.728;8.748;2024-01-07T02:47:13;25.92;;;19.83;;
34924;SDS011;21130;51.728;8.748;2024-01-07T02:49:39;24.10;;;18.98;;
34924;SDS011;21130;51.728;8.748;2024-01-07T02:52:06;26.70;;;20.33;;
34924;SDS011;21130;51.728;8.748;2024-01-07T02:54:33;27.52;;;20.17;;
34924;SDS011;21130;51.728;8.748;2024-01-07T02:56:58;28.13;;;20.70;;
34924;SDS011;21130;51.728;8.748;2024-01-07T02:59:26;27.30;;;20.35;;
34924;SDS011;21130;51.728;8.748;2024-01-07T03:01:52;27.98;;;19.73;;
34924;SDS011;21130;51.728;8.748;2024-01-07T03:04:23;28.55;;;19.75;;
34924;SDS011;21130;51.728;8.748;2024-01-07T03:06:50;28.75;;;20.52;;
34924;SDS011;21130;51.728;8.748;2024-01-07T03:09:16;28.52;;;21.23;;
34924;SDS011;21130;51.728;8.748;2024-01-07T03:11:43;28.30;;;20.55;;
34924;SDS011;21130;51.728;8.748;2024-01-07T03:14:09;28.92;;;21.63;;
34924;SDS011;21130;51.728;8.748;2024-01-07T03:16:37;26.15;;;20.55;;
34924;SDS011;21130;51.728;8.748;2024-01-07T03:19:04;26.90;;;20.20;;
34924;SDS011;21130;51.728;8.748;2024-01-07T03:21:30;24.55;;;18.92;;
34924;SDS011;21130;51.728;8.748;2024-01-07T03:23:57;22.15;;;17.33;;
34924;SDS011;21130;51.728;8.748;2024-01-07T03:26:23;22.05;;;15.45;;
34924;SDS011;21130;51.728;8.748;2024-01-07T03:28:50;21.17;;;16.45;;
34924;SDS011;21130;51.728;8.748;2024-01-07T03:31:18;23.00;;;17.13;;
34924;SDS011;21130;51.728;8.748;2024-01-07T03:33:46;26.20;;;18.70;;
34924;SDS011;21130;51.728;8.748;2024-01-07T03:36:13;23.58;;;17.75;;
34924;SDS011;21130;51.728;8.748;2024-01-07T03:38:40;23.80;;;17.80;;
34924;SDS011;21130;51.728;8.748;2024-01-07T03:41:07;24.90;;;17.70;;
34924;SDS011;21130;51.728;8.748;2024-01-07T03:43:34;26.55;;;18.27;;
34924;SDS011;21130;51.728;8.748;2024-01-07T03:46:00;23.88;;;18.17;;
34924;SDS011;21130;51.728;8.748;2024-01-07T03:48:27;22.88;;;18.73;;
34924;SDS011;21130;51.728;8.748;2024-01-07T03:50:55;26.27;;;19.77;;
34924;SDS011;21130;51.728;8.748;2024-01-07T03:53:21;30.15;;;22.00;;
34924;SDS011;21130;51.728;8.748;2024-01-07T03:55:48;32.22;;;23.25;;
34924;SDS011;21130;51.728;8.748;2024-01-07T04:17:33;31.83;;;22.70;;
34924;SDS011;21130;51.728;8.748;2024-01-07T04:19:59;31.33;;;22.23;;
34924;SDS011;21130;51.728;8.748;2024-01-07T04:22:26;31.10;;;23.10;;
34924;SDS011;21130;51.728;8.748;2024-01-07T04:24:52;34.22;;;23.98;;
34924;SDS011;21130;51.728;8.748;2024-01-07T04:27:19;34.17;;;23.85;;
34924;SDS011;21130;51.728;8.748;2024-01-07T04:29:45;29.60;;;22.30;;
34924;SDS011;21130;51.728;8.748;2024-01-07T04:32:12;28.35;;;21.48;;
34924;SDS011;21130;51.728;8.748;2024-01-07T04:34:40;28.05;;;20.65;;
34924;SDS011;21130;51.728;8.748;2024-01-07T04:37:06;27.45;;;20.33;;
34924;SDS011;21130;51.728;8.748;2024-01-07T04:39:32;24.90;;;19.42;;
34924;SDS011;21130;51.728;8.748;2024-01-07T04:41:59;26.15;;;19.42;;
34924;SDS011;21130;51.728;8.748;2024-01-07T04:44:25;24.52;;;19.10;;
34924;SDS011;21130;51.728;8.748;2024-01-07T04:46:52;23.25;;;18.98;;
34924;SDS011;21130;51.728;8.748;2024-01-07T04:49:18;21.58;;;17.90;;
34924;SDS011;21130;51.728;8.748;2024-01-07T04:51:46;19.33;;;15.68;;
34924;SDS011;21130;51.728;8.748;2024-01-07T04:54:13;17.25;;;14.40;;
34924;SDS011;21130;51.728;8.748;2024-01-07T04:56:39;16.88;;;13.38;;
34924;SDS011;21130;51.728;8.748;2024-01-07T04:59:05;17.08;;;13.40;;
34924;SDS011;21130;51.728;8.748;2024-01-07T05:01:33;16.95;;;13.43;;
34924;SDS011;21130;51.728;8.748;2024-01-07T05:04:00;13.88;;;12.45;;
34924;SDS011;21130;51.728;8.748;2024-01-07T05:06:27;14.38;;;12.25;;
34924;SDS011;21130;51.728;8.748;2024-01-07T05:08:55;15.75;;;11.63;;
34924;SDS011;21130;51.728;8.748;2024-01-07T05:11:22;15.57;;;12.43;;
34924;SDS011;21130;51.728;8.748;2024-01-07T05:13:49;15.85;;;12.82;;
34924;SDS011;21130;51.728;8.748;2024-01-07T05:16:18;14.93;;;13.20;;
34924;SDS011;21130;51.728;8.748;2024-01-07T05:18:47;17.67;;;12.82;;
34924;SDS011;21130;51.728;8.748;2024-01-07T05:21:14;14.32;;;12.00;;
34924;SDS011;21130;51.728;8.748;2024-01-07T05:23:40;15.23;;;11.75;;
34924;SDS011;21130;51.728;8.748;2024-01-07T05:26:08;12.77;;;11.20;;
34924;SDS011;21130;51.728;8.748;2024-01-07T05:28:36;15.18;;;12.30;;
34924;SDS011;21130;51.728;8.748;2024-01-07T05:31:02;14.25;;;11.30;;
34924;SDS011;21130;51.728;8.748;2024-01-07T05:33:29;16.08;;;12.88;;
34924;SDS011;21130;51.728;8.748;2024-01-07T05:35:56;15.68;;;13.35;;
34924;SDS011;21130;51.728;8.748;2024-01-07T05:38:22;17.27;;;13.40;;
34924;SDS011;21130;51.728;8.748;2024-01-07T05:40:49;16.08;;;13.20;;
34924;SDS011;21130;51.728;8.748;2024-01-07T05:43:17;17.52;;;13.50;;
34924;SDS011;21130;51.728;8.748;2024-01-07T05:45:43;17.27;;;13.68;;
34924;SDS011;21130;51.728;8.748;2024-01-07T05:48:10;16.60;;;14.45;;
34924;SDS011;21130;51.728;8.748;2024-01-07T05:50:36;18.20;;;14.68;;
34924;SDS011;21130;51.728;8.748;2024-01-07T05:53:03;17.52;;;14.65;;
34924;SDS011;21130;51.728;8.748;2024-01-07T05:55:29;17.02;;;14.27;;
34924;SDS011;21130;51.728;8.748;2024-01-07T05:57:56;19.30;;;14.88;;
34924;SDS011;21130;51.728;8.748;2024-01-07T06:00:24;17.35;;;14.65;;
34924;SDS011;21130;51.728;8.748;2024-01-07T06:02:51;19.35;;;15.15;;
34924;SDS011;21130;51.728;8.748;2024-01-07T06:05:17;19.15;;;15.90;;
34924;SDS011;21130;51.728;8.748;2024-01-07T06:07:47;21.83;;;17.40;;
34924;SDS011;21130;51.728;8.748;2024-01-07T06:10:13;23.83;;;17.27;;
34924;SDS011;21130;51.728;8.748;2024-01-07T06:12:40;19.33;;;15.35;;
34924;SDS011;21130;51.728;8.748;2024-01-07T06:15:07;16.98;;;14.75;;
34924;SDS011;21130;51.728;8.748;2024-01-07T06:23:30;16.10;;;12.23;;
34924;SDS011;21130;51.728;8.748;2024-01-07T06:25:58;16.67;;;13.55;;
34924;SDS011;21130;51.728;8.748;2024-01-07T06:28:25;15.48;;;13.23;;
34924;SDS011;21130;51.728;8.748;2024-01-07T06:30:51;18.75;;;12.50;;
34924;SDS011;21130;51.728;8.748;2024-01-07T06:33:19;18.90;;;13.02;;
34924;SDS011;21130;51.728;8.748;2024-01-07T06:35:45;17.70;;;13.38;;
34924;SDS011;21130;51.728;8.748;2024-01-07T06:38:13;14.77;;;11.98;;
34924;SDS011;21130;51.728;8.748;2024-01-07T06:40:40;15.05;;;11.82;;
34924;SDS011;21130;51.728;8.748;2024-01-07T06:43:07;18.75;;;13.02;;
34924;SDS011;21130;51.728;8.748;2024-01-07T06:45:33;16.67;;;12.25;;
34924;SDS011;21130;51.728;8.748;2024-01-07T06:48:00;15.70;;;12.02;;
34924;SDS011;21130;51.728;8.748;2024-01-07T06:50:26;15.45;;;12.07;;
34924;SDS011;21130;51.728;8.748;2024-01-07T06:52:53;14.52;;;12.80;;
34924;SDS011;21130;51.728;8.748;2024-01-07T06:55:21;15.77;;;12.38;;
34924;SDS011;21130;51.728;8.748;2024-01-07T06:57:48;17.95;;;12.73;;
34924;SDS011;21130;51.728;8.748;2024-01-07T07:00:14;15.10;;;12.25;;
34924;SDS011;21130;51.728;8.748;2024-01-07T07:02:42;13.20;;;11.07;;
34924;SDS011;21130;51.728;8.748;2024-01-07T07:05:09;13.13;;;10.95;;
34924;SDS011;21130;51.728;8.748;2024-01-07T07:07:36;11.88;;;10.55;;
34924;SDS011;21130;51.728;8.748;2024-01-07T07:10:02;14.50;;;11.18;;
34924;SDS011;21130;51.728;8.748;2024-01-07T07:12:31;16.48;;;11.23;;
34924;SDS011;21130;51.728;8.748;2024-01-07T07:14:57;13.40;;;10.70;;
34924;SDS011;21130;51.728;8.748;2024-01-07T07:17:24;14.52;;;11.48;;
34924;SDS011;21130;51.728;8.748;2024-01-07T07:19:50;15.18;;;12.38;;
34924;SDS011;21130;51.728;8.748;2024-01-07T07:22:17;14.70;;;12.13;;
34924;SDS011;21130;51.728;8.748;2024-01-07T07:24:44;17.33;;;12.52;;
34924;SDS011;21130;51.728;8.748;2024-01-07T07:27:10;17.27;;;13.80;;
34924;SDS011;21130;51.728;8.748;2024-01-07T07:29:38;17.08;;;14.20;;
34924;SDS011;21130;51.728;8.748;2024-01-07T07:32:06;18.40;;;14.23;;
34924;SDS011;21130;51.728;8.748;2024-01-07T07:34:33;18.77;;;15.00;;
34924;SDS011;21130;51.728;8.748;2024-01-07T07:36:59;17.13;;;13.40;;
34924;SDS011;21130;51.728;8.748;2024-01-07T07:39:26;13.43;;;11.43;;
34924;SDS011;21130;51.728;8.748;2024-01-07T07:41:52;11.98;;;10.57;;
34924;SDS011;21130;51.728;8.748;2024-01-07T07:44:18;12.18;;;10.57;;
34924;SDS011;21130;51.728;8.748;2024-01-07T07:46:46;14.63;;;11.27;;
34924;SDS011;21130;51.728;8.748;2024-01-07T07:49:13;15.32;;;11.73;;
34924;SDS011;21130;51.728;8.748;2024-01-07T07:51:40;14.82;;;11.65;;
34924;SDS011;21130;51.728;8.748;2024-01-07T07:54:06;15.00;;;11.35;;
34924;SDS011;21130;51.728;8.748;2024-01-07T07:56:33;13.27;;;11.00;;
34924;SDS011;21130;51.728;8.748;2024-01-07T07:59:01;13.60;;;10.82;;
34924;SDS011;21130;51.728;8.748;2024-01-07T08:01:27;11.98;;;10.20;;
34924;SDS011;21130;51.728;8.748;2024-01-07T08:03:55;11.98;;;10.35;;
34924;SDS011;21130;51.728;8.748;2024-01-07T08:06:22;13.30;;;10.23;;
34924;SDS011;21130;51.728;8.748;2024-01-07T08:08:48;12.98;;;9.73;;
34924;SDS011;21130;51.728;8.748;2024-01-07T08:11:15;13.73;;;9.32;;
34924;SDS011;21130;51.728;8.748;2024-01-07T08:13:42;10.68;;;8.95;;
34924;SDS011;21130;51.728;8.748;2024-01-07T08:16:08;11.18;;;8.95;;
34924;SDS011;21130;51.728;8.748;2024-01-07T08:18:35;12.93;;;9.70;;
34924;SDS011;21130;51.728;8.748;2024-01-07T08:21:03;12.32;;;9.45;;
34924;SDS011;21130;51.728;8.748;2024-01-07T08:23:30;13.20;;;9.93;;
34924;SDS011;21130;51.728;8.748;2024-01-07T08:25:58;11.73;;;8.88;;
34924;SDS011;21130;51.728;8.748;2024-01-07T08:28:24;11.75;;;9.18;;
34924;SDS011;21130;51.728;8.748;2024-01-07T08:30:51;12.07;;;9.32;;
34924;SDS011;21130;51.728;8.748;2024-01-07T08:33:18;10.90;;;8.18;;
34924;SDS011;21130;51.728;8.748;2024-01-07T08:35:45;9.07;;;7.32;;
34924;SDS011;21130;51.728;8.748;2024-01-07T08:38:13;8.45;;;6.72;;
34924;SDS011;21130;51.728;8.748;2024-01-07T08:40:40;8.45;;;6.32;;
34924;SDS011;21130;51.728;8.748;2024-01-07T08:43:06;7.47;;;6.10;;
34924;SDS011;21130;51.728;8.748;2024-01-07T08:45:33;8.18;;;6.18;;
34924;SDS011;21130;51.728;8.748;2024-01-07T08:47:59;9.20;;;6.10;;
34924;SDS011;21130;51.728;8.748;2024-01-07T08:50:26;8.45;;;6.28;;
34924;SDS011;21130;51.728;8.748;2024-01-07T08:52:52;8.45;;;6.70;;
34924;SDS011;21130;51.728;8.748;2024-01-07T08:55:20;7.57;;;5.57;;
34924;SDS011;21130;51.728;8.748;2024-01-07T08:57:46;7.53;;;5.60;;
34924;SDS011;21130;51.728;8.748;2024-01-07T09:00:14;7.82;;;6.25;;
34924;SDS011;21130;51.728;8.748;2024-01-07T09:02:41;7.22;;;5.70;;
34924;SDS011;21130;51.728;8.748;2024-01-07T09:05:08;9.52;;;6.60;;
34924;SDS011;21130;51.728;8.748;2024-01-07T09:07:35;6.88;;;6.18;;
34924;SDS011;21130;51.728;8.748;2024-01-07T09:10:01;6.68;;;5.88;;
34924;SDS011;21130;51.728;8.748;2024-01-07T09:12:29;7.82;;;6.28;;
34924;SDS011;21130;51.728;8.748;2024-01-07T09:14:56;8.43;;;6.40;;
34924;SDS011;21130;51.728;8.748;2024-01-07T09:17:23;6.45;;;5.65;;
34924;SDS011;21130;51.728;8.748;2024-01-07T09:19:49;9.52;;;6.97;;
34924;SDS011;21130;51.728;8.748;2024-01-07T09:22:16;7.40;;;6.40;;
34924;SDS011;21130;51.728;8.748;2024-01-07T09:24:42;7.07;;;6.00;;
34924;SDS011;21130;51.728;8.748;2024-01-07T09:27:09;12.23;;;5.30;;
34924;SDS011;21130;51.728;8.748;2024-01-07T09:29:37;7.18;;;5.78;;
34924;SDS011;21130;51.728;8.748;2024-01-07T09:32:04;5.47;;;4.90;;
34924;SDS011;21130;51.728;8.748;2024-01-07T09:34:31;6.72;;;5.50;;
34924;SDS011;21130;51.728;8.748;2024-01-07T09:36:57;5.32;;;4.82;;
34924;SDS011;21130;51.728;8.748;2024-01-07T09:39:24;6.53;;;4.90;;
34924;SDS011;21130;51.728;8.748;2024-01-07T09:41:51;6.85;;;5.38;;
34924;SDS011;21130;51.728;8.748;2024-01-07T09:44:17;5.88;;;4.53;;
34924;SDS011;21130;51.728;8.748;2024-01-07T09:46:46;5.22;;;4.72;;
34924;SDS011;21130;51.728;8.748;2024-01-07T09:49:16;6.72;;;5.22;;
34924;SDS011;21130;51.728;8.748;2024-01-07T09:51:44;5.35;;;4.85;;
34924;SDS011;21130;51.728;8.748;2024-01-07T09:54:11;6.07;;;5.45;;
34924;SDS011;21130;51.728;8.748;2024-01-07T09:56:46;5.97;;;4.63;;
34924;SDS011;21130;51.728;8.748;2024-01-07T09:59:17;6.13;;;4.47;;
34924;SDS011;21130;51.728;8.748;2024-01-07T10:01:43;6.30;;;5.07;;
34924;SDS011;21130;51.728;8.748;2024-01-07T10:04:13;6.85;;;4.47;;
34924;SDS011;21130;51.728;8.748;2024-01-07T10:06:39;4.82;;;4.30;;
34924;SDS011;21130;51.728;8.748;2024-01-07T10:09:06;4.85;;;4.00;;
34924;SDS011;21130;51.728;8.748;2024-01-07T10:11:32;6.10;;;4.20;;
34924;SDS011;21130;51.728;8.748;2024-01-07T10:14:00;6.05;;;4.40;;
34924;SDS011;21130;51.728;8.748;2024-01-07T10:16:26;5.35;;;4.63;;
34924;SDS011;21130;51.728;8.748;2024-01-07T10:18:54;5.10;;;4.60;;
34924;SDS011;21130;51.728;8.748;2024-01-07T10:21:22;5.00;;;4.03;;
34924;SDS011;21130;51.728;8.748;2024-01-07T10:23:48;6.03;;;3.80;;
34924;SDS011;21130;51.728;8.748;2024-01-07T10:26:15;4.97;;;3.60;;
34924;SDS011;21130;51.728;8.748;2024-01-07T10:28:42;4.10;;;3.60;;
34924;SDS011;21130;51.728;8.748;2024-01-07T10:31:09;4.07;;;3.28;;
34924;SDS011;21130;51.728;8.748;2024-01-07T10:33:36;3.75;;;3.42;;
34924;SDS011;21130;51.728;8.748;2024-01-07T10:36:05;3.63;;;2.97;;
34924;SDS011;21130;51.728;8.748;2024-01-07T10:38:32;4.50;;;3.00;;
34924;SDS011;21130;51.728;8.748;2024-01-07T10:40:59;3.85;;;3.45;;
34924;SDS011;21130;51.728;8.748;2024-01-07T10:43:28;4.15;;;3.75;;
34924;SDS011;21130;51.728;8.748;2024-01-07T10:45:56;4.15;;;3.17;;
34924;SDS011;21130;51.728;8.748;2024-01-07T10:48:28;4.45;;;3.42;;
34924;SDS011;21130;51.728;8.748;2024-01-07T10:50:57;4.45;;;3.60;;
34924;SDS011;21130;51.728;8.748;2024-01-07T10:53:27;4.55;;;3.20;;
34924;SDS011;21130;51.728;8.748;2024-01-07T10:55:59;3.45;;;3.00;;
34924;SDS011;21130;51.728;8.748;2024-01-07T10:58:29;3.20;;;2.95;;
34924;SDS011;21130;51.728;8.748;2024-01-07T11:00:58;4.13;;;3.22;;
34924;SDS011;21130;51.728;8.748;2024-01-07T11:03:30;3.63;;;2.40;;
34924;SDS011;21130;51.728;8.748;2024-01-07T11:06:03;3.10;;;2.80;;
34924;SDS011;21130;51.728;8.748;2024-01-07T11:08:40;2.95;;;2.53;;
34924;SDS011;21130;51.728;8.748;2024-01-07T11:11:12;3.53;;;2.75;;
34924;SDS011;21130;51.728;8.748;2024-01-07T11:13:42;2.53;;;2.33;;
34924;SDS011;21130;51.728;8.748;2024-01-07T11:16:09;4.53;;;3.00;;
34924;SDS011;21130;51.728;8.748;2024-01-07T11:18:40;3.03;;;2.72;;
34924;SDS011;21130;51.728;8.748;2024-01-07T11:21:13;2.70;;;2.50;;
34924;SDS011;21130;51.728;8.748;2024-01-07T11:23:48;3.45;;;2.90;;
34924;SDS011;21130;51.728;8.748;2024-01-07T11:26:14;4.03;;;2.60;;
34924;SDS011;21130;51.728;8.748;2024-01-07T11:28:43;3.17;;;2.88;;
34924;SDS011;21130;51.728;8.748;2024-01-07T11:31:14;3.03;;;2.72;;
34924;SDS011;21130;51.728;8.748;2024-01-07T11:33:41;3.00;;;2.55;;
34924;SDS011;21130;51.728;8.748;2024-01-07T11:36:10;3.40;;;3.08;;
34924;SDS011;21130;51.728;8.748;2024-01-07T11:38:37;4.47;;;2.70;;
34924;SDS011;21130;51.728;8.748;2024-01-07T11:41:06;4.10;;;3.25;;
34924;SDS011;21130;51.728;8.748;2024-01-07T11:43:35;4.00;;;3.13;;
34924;SDS011;21130;51.728;8.748;2024-01-07T11:46:01;3.13;;;2.83;;
34924;SDS011;21130;51.728;8.748;2024-01-07T11:48:28;3.15;;;2.85;;
34924;SDS011;21130;51.728;8.748;2024-01-07T11:50:55;2.50;;;2.30;;
34924;SDS011;21130;51.728;8.748;2024-01-07T11:53:21;3.00;;;2.47;;
34924;SDS011;21130;51.728;8.748;2024-01-07T11:55:48;4.80;;;2.97;;
34924;SDS011;21130;51.728;8.748;2024-01-07T11:58:16;3.40;;;3.10;;
34924;SDS011;21130;51.728;8.748;2024-01-07T12:00:42;3.70;;;3.30;;
34924;SDS011;21130;51.728;8.748;2024-01-07T12:03:09;3.63;;;2.88;;
34924;SDS011;21130;51.728;8.748;2024-01-07T12:05:37;3.75;;;3.25;;
34924;SDS011;21130;51.728;8.748;2024-01-07T12:08:03;4.93;;;3.47;;
34924;SDS011;21130;51.728;8.748;2024-01-07T12:10:31;11.25;;;7.47;;
34924;SDS011;21130;51.728;8.748;2024-01-07T12:12:57;5.30;;;4.30;;
34924;SDS011;21130;51.728;8.748;2024-01-07T12:15:25;5.05;;;4.55;;
34924;SDS011;21130;51.728;8.748;2024-01-07T12:17:56;7.22;;;3.70;;
34924;SDS011;21130;51.728;8.748;2024-01-07T12:20:26;5.70;;;4.32;;
34924;SDS011;21130;51.728;8.748;2024-01-07T12:22:55;4.22;;;3.65;;
34924;SDS011;21130;51.728;8.748;2024-01-07T12:25:23;4.40;;;3.63;;
34924;SDS011;21130;51.728;8.748;2024-01-07T12:27:50;4.80;;;4.30;;
34924;SDS011;21130;51.728;8.748;2024-01-07T12:30:23;6.10;;;4.30;;
34924;SDS011;21130;51.728;8.748;2024-01-07T12:32:52;5.85;;;4.28;;
34924;SDS011;21130;51.728;8.748;2024-01-07T12:35:19;5.25;;;4.20;;
34924;SDS011;21130;51.728;8.748;2024-01-07T12:37:45;5.88;;;4.07;;
34924;SDS011;21130;51.728;8.748;2024-01-07T12:40:14;5.30;;;3.80;;
34924;SDS011;21130;51.728;8.748;2024-01-07T12:42:41;5.07;;;3.90;;
34924;SDS011;21130;51.728;8.748;2024-01-07T12:45:11;5.40;;;3.83;;
34924;SDS011;21130;51.728;8.748;2024-01-07T12:47:39;5.10;;;4.60;;
34924;SDS011;21130;51.728;8.748;2024-01-07T12:50:08;5.03;;;4.05;;
34924;SDS011;21130;51.728;8.748;2024-01-07T12:52:36;5.93;;;4.18;;
34924;SDS011;21130;51.728;8.748;2024-01-07T12:55:03;5.07;;;4.25;;
34924;SDS011;21130;51.728;8.748;2024-01-07T12:57:31;5.05;;;4.55;;
34924;SDS011;21130;51.728;8.748;2024-01-07T12:59:57;4.78;;;3.60;;
34924;SDS011;21130;51.728;8.748;2024-01-07T13:02:24;4.72;;;3.72;;
34924;SDS011;21130;51.728;8.748;2024-01-07T13:04:50;4.13;;;3.72;;
34924;SDS011;21130;51.728;8.748;2024-01-07T13:07:18;5.93;;;4.15;;
34924;SDS011;21130;51.728;8.748;2024-01-07T13:09:45;6.22;;;4.10;;
34924;SDS011;21130;51.728;8.748;2024-01-07T13:12:11;7.60;;;5.25;;
34924;SDS011;21130;51.728;8.748;2024-01-07T13:14:38;5.22;;;4.53;;
34924;SDS011;21130;51.728;8.748;2024-01-07T13:17:04;6.63;;;4.75;;
34924;SDS011;21130;51.728;8.748;2024-01-07T13:19:31;7.25;;;4.10;;
34924;SDS011;21130;51.728;8.748;2024-01-07T13:21:58;6.47;;;4.53;;
34924;SDS011;21130;51.728;8.748;2024-01-07T13:24:28;4.72;;;4.18;;
34924;SDS011;21130;51.728;8.748;2024-01-07T13:26:54;5.43;;;4.85;;
34924;SDS011;21130;51.728;8.748;2024-01-07T13:29:21;4.88;;;4.35;;
34924;SDS011;21130;51.728;8.748;2024-01-07T13:31:47;5.28;;;4.10;;
34924;SDS011;21130;51.728;8.748;2024-01-07T13:40:29;7.82;;;5.07;;
34924;SDS011;21130;51.728;8.748;2024-01-07T13:42:55;5.80;;;4.47;;
34924;SDS011;21130;51.728;8.748;2024-01-07T13:45:22;5.90;;;5.03;;
34924;SDS011;21130;51.728;8.748;2024-01-07T13:47:48;5.32;;;4.75;;
34924;SDS011;21130;51.728;8.748;2024-01-07T13:50:15;5.22;;;4.43;;
34924;SDS011;21130;51.728;8.748;2024-01-07T13:52:41;4.07;;;3.72;;
34924;SDS011;21130;51.728;8.748;2024-01-07T13:55:08;4.88;;;4.35;;
34924;SDS011;21130;51.728;8.748;2024-01-07T13:57:36;4.85;;;4.32;;
34924;SDS011;21130;51.728;8.748;2024-01-07T14:00:04;5.18;;;4.38;;
34924;SDS011;21130;51.728;8.748;2024-01-07T14:02:34;6.20;;;4.55;;
34924;SDS011;21130;51.728;8.748;2024-01-07T14:05:02;5.10;;;4.40;;
34924;SDS011;21130;51.728;8.748;2024-01-07T14:07:31;5.18;;;4.68;;
34924;SDS011;21130;51.728;8.748;2024-01-07T14:09:58;4.82;;;4.40;;
34924;SDS011;21130;51.728;8.748;2024-01-07T14:12:24;5.95;;;5.00;;
34924;SDS011;21130;51.728;8.748;2024-01-07T14:14:52;5.28;;;3.92;;
34924;SDS011;21130;51.728;8.748;2024-01-07T14:17:19;4.55;;;3.90;;
34924;SDS011;21130;51.728;8.748;2024-01-07T14:19:45;4.55;;;3.30;;
34924;SDS011;21130;51.728;8.748;2024-01-07T14:22:13;4.88;;;4.30;;
34924;SDS011;21130;51.728;8.748;2024-01-07T14:24:40;5.55;;;4.30;;
34924;SDS011;21130;51.728;8.748;2024-01-07T14:27:08;5.38;;;3.88;;
34924;SDS011;21130;51.728;8.748;2024-01-07T14:29:36;4.35;;;3.85;;
34924;SDS011;21130;51.728;8.748;2024-01-07T14:32:04;4.85;;;3.35;;
34924;SDS011;21130;51.728;8.748;2024-01-07T14:34:32;4.55;;;3.67;;
34924;SDS011;21130;51.728;8.748;2024-01-07T14:36:58;4.30;;;2.75;;
34924;SDS011;21130;51.728;8.748;2024-01-07T14:39:25;4.35;;;3.33;;
34924;SDS011;21130;51.728;8.748;2024-01-07T14:41:53;3.45;;;3.15;;
34924;SDS011;21130;51.728;8.748;2024-01-07T14:44:19;6.20;;;4.60;;
34924;SDS011;21130;51.728;8.748;2024-01-07T14:46:46;5.05;;;4.20;;
34924;SDS011;21130;51.728;8.748;2024-01-07T14:49:14;5.40;;;3.85;;
34924;SDS011;21130;51.728;8.748;2024-01-07T14:51:41;3.97;;;3.10;;
34924;SDS011;21130;51.728;8.748;2024-01-07T14:54:08;5.28;;;3.30;;
34924;SDS011;21130;51.728;8.748;2024-01-07T14:56:34;3.42;;;3.00;;
34924;SDS011;21130;51.728;8.748;2024-01-07T14:59:01;6.35;;;3.65;;
34924;SDS011;21130;51.728;8.748;2024-01-07T15:01:28;4.00;;;3.10;;
34924;SDS011;21130;51.728;8.748;2024-01-07T15:03:54;3.60;;;2.83;;